createdAt,value
2016-03-07T00:00:54.000Z,46.98
2016-03-07T00:01:54.049Z,47.08
2016-03-07T00:02:54.100Z,46.8
2016-03-07T00:03:54.133Z,46.98
2016-03-07T00:04:54.215Z,46.8
2016-03-07T00:05:54.263Z,46.8
2016-03-07T00:06:54.298Z,46.89
2016-03-07T00:07:54.348Z,46.89
2016-03-07T00:08:54.412Z,46.89
2016-03-07T00:09:54.446Z,46.8
2016-03-07T00:10:54.496Z,46.7
2016-03-07T00:11:54.546Z,46.89
2016-03-07T00:12:54.612Z,46.89
2016-03-07T00:13:54.660Z,46.7
2016-03-07T00:14:54.694Z,46.98
2016-03-07T00:15:54.745Z,46.89
2016-03-07T00:16:54.809Z,46.98
2016-03-07T00:17:54.842Z,46.89
2016-03-07T00:18:54.893Z,46.89
2016-03-07T00:19:54.958Z,46.98
2016-03-07T00:20:54.992Z,46.89
2016-03-07T00:21:55.042Z,46.89
2016-03-07T00:22:55.106Z,46.89
2016-03-07T00:23:55.140Z,46.51
2016-03-07T00:24:55.190Z,46.61
2016-03-07T00:25:55.239Z,46.8
2016-03-07T00:26:55.460Z,46.7
2016-03-07T00:27:55.338Z,46.8
2016-03-07T00:28:55.388Z,46.7
2016-03-07T00:29:55.422Z,47.56
2016-03-07T00:30:55.503Z,47.25
2016-03-07T00:31:55.537Z,46.61
2016-03-07T00:32:55.586Z,47.08
2016-03-07T00:33:55.652Z,46.61
2016-03-07T00:34:55.686Z,46.89
2016-03-07T00:35:55.719Z,46.7
2016-03-07T00:36:55.815Z,46.7
2016-03-07T00:37:55.819Z,46.98
2016-03-07T00:38:55.899Z,46.7
2016-03-07T00:39:55.934Z,46.89
2016-03-07T00:40:55.968Z,47.27
2016-03-07T00:41:56.032Z,46.7
2016-03-07T00:42:56.082Z,46.8
2016-03-07T00:43:56.116Z,46.8
2016-03-07T00:44:56.197Z,46.61
2016-03-07T00:45:56.230Z,46.77
2016-03-07T00:46:56.296Z,46.89
2016-03-07T00:47:56.345Z,46.61
2016-03-07T00:48:56.395Z,46.8
2016-03-07T00:49:56.429Z,46.7
2016-03-07T00:50:56.494Z,46.8
2016-03-07T00:51:56.528Z,46.8
2016-03-07T00:52:56.594Z,46.8
2016-03-07T00:53:56.642Z,46.58
2016-03-07T00:54:56.677Z,46.8
2016-03-07T00:55:56.727Z,47.66
2016-03-07T00:56:56.791Z,46.7
2016-03-07T00:57:56.825Z,46.98
2016-03-07T00:58:56.891Z,46.7
2016-03-07T00:59:56.941Z,46.7
2016-03-07T01:00:56.974Z,46.7
2016-03-07T01:01:57.055Z,46.87
2016-03-07T01:02:57.089Z,46.8
2016-03-07T01:03:57.138Z,47.37
2016-03-07T01:04:57.219Z,46.7
2016-03-07T01:05:57.222Z,47.75
2016-03-07T01:06:57.271Z,47.75
2016-03-07T01:07:57.338Z,46.98
2016-03-07T01:08:57.371Z,47.08
2016-03-07T01:09:57.420Z,47.08
2016-03-07T01:10:57.485Z,47.08
2016-03-07T01:11:57.535Z,47.08
2016-03-07T01:12:57.568Z,47.75
2016-03-07T01:13:57.634Z,47.08
2016-03-07T01:14:57.684Z,46.98
2016-03-07T01:15:57.733Z,47.27
2016-03-07T01:16:57.752Z,47.27
2016-03-07T01:17:57.817Z,46.98
2016-03-07T01:18:57.882Z,47.08
2016-03-07T01:19:57.916Z,47.08
2016-03-07T01:20:57.997Z,47.25
2016-03-07T01:21:58.031Z,47.08
2016-03-07T01:22:58.080Z,47.27
2016-03-07T01:23:58.098Z,47.08
2016-03-07T01:24:58.180Z,47.27
2016-03-07T01:25:58.229Z,47.27
2016-03-07T01:26:58.264Z,47.08
2016-03-07T01:27:58.328Z,47.08
2016-03-07T01:28:58.377Z,47.08
2016-03-07T01:29:58.428Z,47.27
2016-03-07T01:30:58.461Z,47.27
2016-03-07T01:31:58.526Z,47.27
2016-03-07T01:32:58.560Z,47.27
2016-03-07T01:33:58.594Z,47.92
2016-03-07T01:34:58.674Z,47.27
2016-03-07T01:35:58.725Z,47.25
2016-03-07T01:36:58.743Z,47.27
2016-03-07T01:37:58.823Z,47.08
2016-03-07T01:38:58.874Z,47.18
2016-03-07T01:39:58.907Z,47.06
2016-03-07T01:40:58.973Z,47.08
2016-03-07T01:41:59.006Z,47.37
2016-03-07T01:42:59.071Z,47.75
2016-03-07T01:43:59.106Z,47.18
2016-03-07T01:44:59.155Z,47.47
2016-03-07T01:45:59.204Z,47.18
2016-03-07T01:46:59.270Z,47.44
2016-03-07T01:47:59.288Z,47.18
2016-03-07T01:48:59.353Z,47.37
2016-03-07T01:49:59.418Z,47.25
2016-03-07T01:50:59.452Z,47.27
2016-03-07T01:51:59.518Z,47.25
2016-03-07T01:52:59.567Z,47.25
2016-03-07T01:53:59.601Z,47.34
2016-03-07T01:54:59.667Z,47.16
2016-03-07T01:55:59.700Z,47.25
2016-03-07T01:56:59.766Z,47.73
2016-03-07T01:57:59.815Z,47.25
2016-03-07T01:58:59.849Z,47.25
2016-03-07T01:59:59.898Z,47.27
2016-03-07T02:00:59.964Z,47.25
2016-03-07T02:02:00.013Z,47.25
2016-03-07T02:03:00.047Z,47.27
2016-03-07T02:04:00.113Z,47.82
2016-03-07T02:05:00.146Z,47.34
2016-03-07T02:06:00.196Z,47.16
2016-03-07T02:07:00.261Z,47.25
2016-03-07T02:08:00.310Z,47.27
2016-03-07T02:09:00.360Z,47.34
2016-03-07T02:10:00.394Z,47.16
2016-03-07T02:11:00.429Z,47.82
2016-03-07T02:12:00.524Z,47.16
2016-03-07T02:13:00.559Z,47.18
2016-03-07T02:14:00.593Z,47.37
2016-03-07T02:15:00.642Z,47.08
2016-03-07T02:16:00.723Z,47.37
2016-03-07T02:17:00.741Z,47.27
2016-03-07T02:18:00.806Z,47.44
2016-03-07T02:19:00.871Z,47.37
2016-03-07T02:20:00.890Z,47.25
2016-03-07T02:21:00.940Z,47.25
2016-03-07T02:22:00.990Z,47.47
2016-03-07T02:23:01.039Z,47.44
2016-03-07T02:24:01.089Z,47.08
2016-03-07T02:25:01.137Z,47.27
2016-03-07T02:26:01.203Z,47.06
2016-03-07T02:27:01.268Z,47.34
2016-03-07T02:28:01.302Z,47.53
2016-03-07T02:29:01.368Z,47.66
2016-03-07T02:30:01.417Z,47.27
2016-03-07T02:31:01.436Z,47.44
2016-03-07T02:32:01.485Z,47.37
2016-03-07T02:33:01.534Z,47.37
2016-03-07T02:34:01.599Z,47.34
2016-03-07T02:35:01.664Z,47.06
2016-03-07T02:36:01.683Z,47.44
2016-03-07T02:37:01.749Z,47.08
2016-03-07T02:38:01.798Z,47.06
2016-03-07T02:39:01.832Z,46.96
2016-03-07T02:40:01.897Z,47.16
2016-03-07T02:41:01.946Z,47.53
2016-03-07T02:42:01.980Z,47.66
2016-03-07T02:43:02.030Z,47.25
2016-03-07T02:44:02.110Z,47.34
2016-03-07T02:45:02.114Z,47.06
2016-03-07T02:46:02.210Z,46.96
2016-03-07T02:47:02.244Z,47.63
2016-03-07T02:48:02.278Z,47.06
2016-03-07T02:49:02.343Z,47.44
2016-03-07T02:50:02.362Z,47.16
2016-03-07T02:51:02.442Z,47.25
2016-03-07T02:52:02.492Z,47.44
2016-03-07T02:53:02.526Z,47.44
2016-03-07T02:54:02.576Z,47.06
2016-03-07T02:55:02.640Z,47.44
2016-03-07T02:56:02.675Z,47.34
2016-03-07T02:57:02.723Z,47.53
2016-03-07T02:58:02.773Z,47.06
2016-03-07T02:59:02.839Z,47.53
2016-03-07T03:00:02.935Z,47.63
2016-03-07T03:01:02.907Z,47.44
2016-03-07T03:02:02.972Z,47.34
2016-03-07T03:03:03.022Z,47.44
2016-03-07T03:04:03.071Z,47.44
2016-03-07T03:05:03.120Z,47.44
2016-03-07T03:06:03.170Z,47.53
2016-03-07T03:07:03.235Z,47.44
2016-03-07T03:08:03.269Z,47.53
2016-03-07T03:09:03.319Z,47.53
2016-03-07T03:10:03.369Z,47.53
2016-03-07T03:11:03.402Z,47.44
2016-03-07T03:12:03.468Z,47.53
2016-03-07T03:13:03.533Z,47.53
2016-03-07T03:14:03.566Z,47.53
2016-03-07T03:15:03.616Z,47.44
2016-03-07T03:16:03.681Z,47.44
2016-03-07T03:17:03.560Z,47.63
2016-03-07T03:18:03.765Z,47.44
2016-03-07T03:19:03.815Z,47.63
2016-03-07T03:20:03.848Z,47.53
2016-03-07T03:21:03.913Z,47.73
2016-03-07T03:22:03.948Z,47.34
2016-03-07T03:23:03.997Z,47.63
2016-03-07T03:24:04.062Z,47.82
2016-03-07T03:25:04.096Z,47.44
2016-03-07T03:26:04.162Z,47.53
2016-03-07T03:27:04.195Z,47.73
2016-03-07T03:28:04.245Z,47.63
2016-03-07T03:29:04.310Z,47.63
2016-03-07T03:30:04.344Z,47.63
2016-03-07T03:31:04.394Z,47.73
2016-03-07T03:32:04.442Z,47.63
2016-03-07T03:33:04.508Z,47.63
2016-03-07T03:34:04.542Z,47.73
2016-03-07T03:35:04.592Z,47.53
2016-03-07T03:36:04.642Z,47.53
2016-03-07T03:37:04.691Z,47.73
2016-03-07T03:38:04.741Z,47.73
2016-03-07T03:39:04.790Z,47.82
2016-03-07T03:40:04.839Z,47.63
2016-03-07T03:41:04.889Z,47.73
2016-03-07T03:42:04.939Z,47.73
2016-03-07T03:43:04.988Z,47.63
2016-03-07T03:44:05.038Z,47.73
2016-03-07T03:45:05.088Z,47.73
2016-03-07T03:46:05.137Z,47.82
2016-03-07T03:47:05.187Z,47.73
2016-03-07T03:48:05.235Z,47.73
2016-03-07T03:49:05.285Z,47.73
2016-03-07T03:50:05.335Z,47.73
2016-03-07T03:51:05.385Z,47.73
2016-03-07T03:52:05.434Z,47.63
2016-03-07T03:53:05.484Z,47.73
2016-03-07T03:54:05.533Z,47.73
2016-03-07T03:55:05.583Z,47.82
2016-03-07T03:56:05.632Z,47.63
2016-03-07T03:57:05.682Z,47.82
2016-03-07T03:58:05.731Z,47.82
2016-03-07T03:59:05.798Z,47.82
2016-03-07T04:00:05.831Z,47.82
2016-03-07T04:01:05.881Z,47.82
2016-03-07T04:02:05.930Z,47.73
2016-03-07T04:03:05.980Z,47.82
2016-03-07T04:04:06.028Z,47.73
2016-03-07T04:05:06.079Z,47.82
2016-03-07T04:06:06.128Z,47.82
2016-03-07T04:07:06.178Z,47.73
2016-03-07T04:08:06.243Z,47.92
2016-03-07T04:09:06.277Z,48.11
2016-03-07T04:10:06.327Z,47.73
2016-03-07T04:11:06.377Z,47.92
2016-03-07T04:12:06.425Z,47.73
2016-03-07T04:13:06.475Z,47.73
2016-03-07T04:14:06.556Z,47.92
2016-03-07T04:15:06.591Z,48.11
2016-03-07T04:16:06.640Z,48.02
2016-03-07T04:17:06.704Z,48.11
2016-03-07T04:18:06.723Z,48.11
2016-03-07T04:19:06.773Z,48.39
2016-03-07T04:20:06.854Z,48.11
2016-03-07T04:21:06.871Z,48.11
2016-03-07T04:22:06.921Z,48.11
2016-03-07T04:23:06.970Z,48.11
2016-03-07T04:24:07.020Z,48.02
2016-03-07T04:25:07.070Z,48.02
2016-03-07T04:26:07.120Z,48.3
2016-03-07T04:27:07.184Z,48.11
2016-03-07T04:28:07.235Z,48.49
2016-03-07T04:29:07.268Z,48.3
2016-03-07T04:30:07.334Z,48.49
2016-03-07T04:31:07.367Z,48.39
2016-03-07T04:32:07.433Z,48.39
2016-03-07T04:33:07.466Z,48.39
2016-03-07T04:34:07.532Z,48.3
2016-03-07T04:35:07.581Z,48.11
2016-03-07T04:36:07.634Z,48.21
2016-03-07T04:37:07.667Z,48.39
2016-03-07T04:38:07.734Z,48.21
2016-03-07T04:39:07.783Z,48.39
2016-03-07T04:40:07.817Z,48.3
2016-03-07T04:41:07.870Z,48.39
2016-03-07T04:42:07.935Z,48.3
2016-03-07T04:43:07.968Z,48.39
2016-03-07T04:44:08.035Z,48.21
2016-03-07T04:45:08.068Z,48.3
2016-03-07T04:46:08.118Z,48.39
2016-03-07T04:47:08.167Z,48.21
2016-03-07T04:48:08.232Z,48.21
2016-03-07T04:49:08.267Z,48.21
2016-03-07T04:50:08.363Z,48.39
2016-03-07T04:51:08.365Z,48.21
2016-03-07T04:52:08.415Z,48.3
2016-03-07T04:53:08.465Z,48.21
2016-03-07T04:54:08.514Z,48.21
2016-03-07T04:55:08.548Z,48.21
2016-03-07T04:56:08.597Z,48.21
2016-03-07T04:57:08.663Z,48.21
2016-03-07T04:58:08.697Z,48.21
2016-03-07T04:59:08.762Z,48.11
2016-03-07T05:00:08.796Z,48.21
2016-03-07T05:01:08.846Z,48.39
2016-03-07T05:02:08.911Z,48.39
2016-03-07T05:03:08.944Z,48.21
2016-03-07T05:04:08.994Z,48.3
2016-03-07T05:05:09.059Z,48.3
2016-03-07T05:06:09.085Z,48.21
2016-03-07T05:07:09.151Z,48.39
2016-03-07T05:08:09.200Z,48.3
2016-03-07T05:09:09.250Z,48.21
2016-03-07T05:10:09.315Z,48.39
2016-03-07T05:11:09.365Z,48.3
2016-03-07T05:12:09.399Z,48.21
2016-03-07T05:13:09.448Z,48.21
2016-03-07T05:14:09.498Z,47.92
2016-03-07T05:15:09.531Z,48.21
2016-03-07T05:16:09.596Z,48.39
2016-03-07T05:17:09.662Z,48.21
2016-03-07T05:18:09.681Z,47.92
2016-03-07T05:19:09.745Z,48.21
2016-03-07T05:20:09.795Z,48.21
2016-03-07T05:21:09.859Z,47.92
2016-03-07T05:22:09.894Z,48.39
2016-03-07T05:23:09.944Z,48.21
2016-03-07T05:24:09.993Z,48.02
2016-03-07T05:25:10.027Z,48.11
2016-03-07T05:26:10.092Z,47.92
2016-03-07T05:27:10.142Z,48.21
2016-03-07T05:28:10.192Z,48.3
2016-03-07T05:29:10.241Z,48.39
2016-03-07T05:30:10.291Z,48.21
2016-03-07T05:31:10.355Z,48.21
2016-03-07T05:32:10.390Z,48.39
2016-03-07T05:33:10.439Z,48.3
2016-03-07T05:34:10.489Z,48.3
2016-03-07T05:35:10.554Z,48.3
2016-03-07T05:36:10.588Z,48.39
2016-03-07T05:37:10.622Z,48.3
2016-03-07T05:38:10.688Z,47.92
2016-03-07T05:39:10.737Z,48.3
2016-03-07T05:40:10.786Z,48.21
2016-03-07T05:41:10.821Z,47.92
2016-03-07T05:42:10.885Z,47.92
2016-03-07T05:43:10.935Z,48.02
2016-03-07T05:44:10.968Z,48.39
2016-03-07T05:45:11.034Z,48.3
2016-03-07T05:46:11.084Z,47.92
2016-03-07T05:47:11.134Z,48.11
2016-03-07T05:48:11.182Z,48.11
2016-03-07T05:49:11.217Z,48.21
2016-03-07T05:50:11.281Z,48.21
2016-03-07T05:51:11.332Z,48.11
2016-03-07T05:52:11.381Z,48.11
2016-03-07T05:53:11.431Z,48.21
2016-03-07T05:54:11.480Z,48.21
2016-03-07T05:55:11.515Z,48.21
2016-03-07T05:56:11.579Z,48.21
2016-03-07T05:57:11.629Z,48.59
2016-03-07T05:58:11.663Z,48.21
2016-03-07T05:59:11.728Z,48.88
2016-03-07T06:00:11.778Z,48.11
2016-03-07T06:01:11.828Z,48.11
2016-03-07T06:02:11.861Z,48.21
2016-03-07T06:03:11.927Z,48.11
2016-03-07T06:04:11.975Z,48.11
2016-03-07T06:05:12.025Z,48.02
2016-03-07T06:06:12.060Z,48.11
2016-03-07T06:07:12.124Z,48.11
2016-03-07T06:08:12.158Z,48.11
2016-03-07T06:09:12.224Z,48.11
2016-03-07T06:10:12.274Z,48.11
2016-03-07T06:11:12.338Z,48.78
2016-03-07T06:12:12.372Z,48.11
2016-03-07T06:13:12.421Z,48.11
2016-03-07T06:14:12.471Z,48.21
2016-03-07T06:15:12.505Z,48.02
2016-03-07T06:16:12.587Z,48.21
2016-03-07T06:17:12.620Z,48.11
2016-03-07T06:18:12.670Z,48.11
2016-03-07T06:19:12.719Z,48.3
2016-03-07T06:20:12.769Z,48.02
2016-03-07T06:21:12.818Z,48.3
2016-03-07T06:22:12.868Z,48.11
2016-03-07T06:23:12.917Z,48.21
2016-03-07T06:24:12.968Z,48.21
2016-03-07T06:25:13.017Z,48.21
2016-03-07T06:26:13.067Z,48.68
2016-03-07T06:27:13.116Z,48.3
2016-03-07T06:28:13.150Z,48.11
2016-03-07T06:29:13.215Z,48.21
2016-03-07T06:30:13.250Z,48.21
2016-03-07T06:31:13.314Z,48.21
2016-03-07T06:32:13.364Z,48.21
2016-03-07T06:33:13.428Z,48.49
2016-03-07T06:34:13.463Z,48.11
2016-03-07T06:35:13.497Z,48.11
2016-03-07T06:36:13.561Z,48.11
2016-03-07T06:37:13.611Z,48.21
2016-03-07T06:38:13.661Z,48.11
2016-03-07T06:39:13.711Z,48.11
2016-03-07T06:40:13.760Z,48.3
2016-03-07T06:41:13.794Z,48.21
2016-03-07T06:42:13.843Z,48.21
2016-03-07T06:43:13.894Z,48.11
2016-03-07T06:44:13.958Z,48.11
2016-03-07T06:45:14.008Z,48.02
2016-03-07T06:46:14.042Z,48.21
2016-03-07T06:47:14.107Z,48.21
2016-03-07T06:48:14.140Z,48.3
2016-03-07T06:49:14.207Z,48.21
2016-03-07T06:50:14.240Z,48.21
2016-03-07T06:51:14.306Z,48.21
2016-03-07T06:52:14.340Z,48.21
2016-03-07T06:53:14.390Z,48.59
2016-03-07T06:54:14.439Z,48.59
2016-03-07T06:55:14.504Z,48.59
2016-03-07T06:56:14.537Z,48.21
2016-03-07T06:57:14.582Z,48.02
2016-03-07T06:58:14.633Z,48.11
2016-03-07T06:59:14.652Z,48.11
2016-03-07T07:00:14.671Z,48.68
2016-03-07T07:01:14.722Z,48.59
2016-03-07T07:02:14.776Z,48.49
2016-03-07T07:03:14.804Z,48.88
2016-03-07T07:04:14.848Z,48.11
2016-03-07T07:05:14.893Z,48.11
2016-03-07T07:06:14.936Z,48.11
2016-03-07T07:07:14.998Z,48.59
2016-03-07T07:08:15.030Z,48.02
2016-03-07T07:09:15.078Z,48.59
2016-03-07T07:10:15.126Z,48.59
2016-03-07T07:11:15.158Z,48.59
2016-03-07T07:12:15.221Z,48.21
2016-03-07T07:13:15.270Z,48.68
2016-03-07T07:14:15.335Z,48.68
2016-03-07T07:15:15.369Z,48.59
2016-03-07T07:16:15.418Z,48.59
2016-03-07T07:17:15.456Z,48.39
2016-03-07T07:18:15.520Z,48.39
2016-03-07T07:19:15.570Z,48.78
2016-03-07T07:20:15.636Z,48.59
2016-03-07T07:21:15.669Z,48.3
2016-03-07T07:22:15.718Z,48.59
2016-03-07T07:23:15.767Z,48.21
2016-03-07T07:24:15.802Z,48.68
2016-03-07T07:25:15.882Z,48.78
2016-03-07T07:26:15.916Z,48.21
2016-03-07T07:27:15.965Z,48.78
2016-03-07T07:28:16.015Z,48.59
2016-03-07T07:29:16.064Z,48.59
2016-03-07T07:30:16.114Z,48.21
2016-03-07T07:31:16.164Z,48.02
2016-03-07T07:32:16.229Z,48.21
2016-03-07T07:33:16.248Z,48.21
2016-03-07T07:34:16.312Z,48.21
2016-03-07T07:35:16.347Z,48.21
2016-03-07T07:36:16.397Z,48.21
2016-03-07T07:37:16.461Z,48.59
2016-03-07T07:38:16.495Z,48.68
2016-03-07T07:39:16.545Z,48.39
2016-03-07T07:40:16.610Z,48.59
2016-03-07T07:41:16.660Z,48.39
2016-03-07T07:42:16.708Z,48.59
2016-03-07T07:43:16.759Z,48.78
2016-03-07T07:44:16.824Z,48.59
2016-03-07T07:45:16.842Z,48.59
2016-03-07T07:46:16.907Z,48.68
2016-03-07T07:47:16.958Z,48.59
2016-03-07T07:48:16.991Z,48.49
2016-03-07T07:49:17.057Z,48.88
2016-03-07T07:50:17.105Z,48.78
2016-03-07T07:51:17.140Z,48.68
2016-03-07T07:52:17.204Z,48.59
2016-03-07T07:53:17.254Z,48.49
2016-03-07T07:54:17.303Z,48.39
2016-03-07T07:55:17.337Z,48.39
2016-03-07T07:56:17.387Z,48.3
2016-03-07T07:57:17.437Z,48.59
2016-03-07T07:58:17.487Z,48.49
2016-03-07T07:59:17.536Z,48.49
2016-03-07T08:00:17.601Z,48.39
2016-03-07T08:01:17.651Z,48.49
2016-03-07T08:02:17.685Z,48.68
2016-03-07T08:03:17.750Z,48.49
2016-03-07T08:04:17.800Z,48.39
2016-03-07T08:05:17.833Z,48.49
2016-03-07T08:06:17.898Z,48.68
2016-03-07T08:07:17.947Z,48.59
2016-03-07T08:08:17.982Z,48.59
2016-03-07T08:09:18.031Z,48.59
2016-03-07T08:10:18.081Z,48.59
2016-03-07T08:11:18.130Z,48.59
2016-03-07T08:12:18.165Z,48.68
2016-03-07T08:13:18.230Z,48.49
2016-03-07T08:14:18.280Z,48.59
2016-03-07T08:15:18.345Z,48.59
2016-03-07T08:16:18.379Z,48.49
2016-03-07T08:17:18.428Z,48.59
2016-03-07T08:18:18.462Z,48.23
2016-03-07T08:19:18.527Z,48.23
2016-03-07T08:20:18.577Z,48.23
2016-03-07T08:21:17.876Z,48.42
2016-03-07T08:22:18.676Z,48.33
2016-03-07T08:23:18.772Z,48.42
2016-03-07T08:24:18.775Z,48.8
2016-03-07T08:25:18.824Z,48.11
2016-03-07T08:26:18.874Z,48.78
2016-03-07T08:27:18.924Z,48.11
2016-03-07T08:28:18.974Z,48.71
2016-03-07T08:29:19.023Z,48.13
2016-03-07T08:30:19.073Z,48.13
2016-03-07T08:31:19.122Z,48.71
2016-03-07T08:32:19.187Z,48.59
2016-03-07T08:33:19.221Z,48.3
2016-03-07T08:34:19.270Z,48.59
2016-03-07T08:35:19.320Z,48.61
2016-03-07T08:36:19.370Z,48.59
2016-03-07T08:37:19.419Z,48.59
2016-03-07T08:38:19.500Z,48.59
2016-03-07T08:39:19.534Z,48.39
2016-03-07T08:40:19.568Z,48.97
2016-03-07T08:41:19.618Z,48.49
2016-03-07T08:42:19.667Z,48.88
2016-03-07T08:43:19.717Z,48.3
2016-03-07T08:44:19.813Z,49.16
2016-03-07T08:45:19.816Z,48.42
2016-03-07T08:46:19.866Z,48.39
2016-03-07T08:47:19.931Z,48.39
2016-03-07T08:48:19.965Z,48.78
2016-03-07T08:49:19.998Z,48.59
2016-03-07T08:50:20.096Z,48.68
2016-03-07T08:51:20.129Z,48.97
2016-03-07T08:52:20.163Z,48.59
2016-03-07T08:53:20.212Z,48.78
2016-03-07T08:54:20.262Z,48.97
2016-03-07T08:55:20.312Z,48.78
2016-03-07T08:56:20.361Z,48.97
2016-03-07T08:57:20.410Z,48.88
2016-03-07T08:58:20.460Z,48.88
2016-03-07T08:59:20.510Z,48.59
2016-03-07T09:00:20.543Z,48.97
2016-03-07T09:01:20.609Z,48.68
2016-03-07T09:02:20.658Z,48.59
2016-03-07T09:03:20.709Z,48.59
2016-03-07T09:04:20.758Z,48.68
2016-03-07T09:05:20.792Z,48.78
2016-03-07T09:06:20.857Z,48.78
2016-03-07T09:07:20.891Z,48.59
2016-03-07T09:08:20.940Z,48.59
2016-03-07T09:09:21.005Z,48.68
2016-03-07T09:10:21.055Z,48.68
2016-03-07T09:11:21.105Z,49.07
2016-03-07T09:12:21.155Z,48.68
2016-03-07T09:13:21.203Z,48.78
2016-03-07T09:14:21.253Z,48.78
2016-03-07T09:15:21.303Z,48.78
2016-03-07T09:16:21.352Z,48.78
2016-03-07T09:17:21.402Z,48.59
2016-03-07T09:18:21.452Z,48.59
2016-03-07T09:19:21.486Z,48.97
2016-03-07T09:20:21.551Z,48.78
2016-03-07T09:21:21.600Z,48.59
2016-03-07T09:22:21.666Z,48.68
2016-03-07T09:23:21.700Z,48.59
2016-03-07T09:24:21.764Z,48.39
2016-03-07T09:25:21.798Z,49.07
2016-03-07T09:26:21.848Z,48.68
2016-03-07T09:27:21.882Z,48.68
2016-03-07T09:28:21.947Z,48.68
2016-03-07T09:29:21.996Z,48.68
2016-03-07T09:30:22.046Z,48.39
2016-03-07T09:31:22.096Z,48.88
2016-03-07T09:32:22.145Z,48.59
2016-03-07T09:33:22.179Z,48.59
2016-03-07T09:34:22.260Z,48.49
2016-03-07T09:35:22.279Z,48.39
2016-03-07T09:36:22.344Z,48.68
2016-03-07T09:37:22.377Z,48.49
2016-03-07T09:38:22.458Z,48.68
2016-03-07T09:39:22.477Z,48.49
2016-03-07T09:40:22.526Z,48.49
2016-03-07T09:41:22.576Z,48.68
2016-03-07T09:42:22.642Z,48.88
2016-03-07T09:43:22.691Z,48.68
2016-03-07T09:44:22.725Z,48.68
2016-03-07T09:45:22.790Z,48.68
2016-03-07T09:46:22.824Z,48.68
2016-03-07T09:47:22.874Z,48.49
2016-03-07T09:48:22.922Z,48.68
2016-03-07T09:49:22.972Z,48.68
2016-03-07T09:50:23.021Z,48.68
2016-03-07T09:51:23.087Z,48.59
2016-03-07T09:52:23.121Z,48.68
2016-03-07T09:53:23.233Z,48.8
2016-03-07T09:54:23.221Z,48.68
2016-03-07T09:55:23.270Z,48.78
2016-03-07T09:56:23.319Z,48.59
2016-03-07T09:57:23.369Z,48.78
2016-03-07T09:58:23.419Z,48.78
2016-03-07T09:59:23.468Z,48.59
2016-03-07T10:00:23.518Z,48.59
2016-03-07T10:01:23.568Z,49.07
2016-03-07T10:02:23.617Z,48.88
2016-03-07T10:03:23.681Z,48.78
2016-03-07T10:04:23.715Z,48.68
2016-03-07T10:05:23.765Z,49.19
2016-03-07T10:06:23.816Z,48.59
2016-03-07T10:07:23.865Z,48.49
2016-03-07T10:08:23.931Z,48.49
2016-03-07T10:09:23.965Z,48.49
2016-03-07T10:10:24.029Z,48.49
2016-03-07T10:11:24.064Z,48.52
2016-03-07T10:12:24.129Z,48.42
2016-03-07T10:13:24.162Z,48.68
2016-03-07T10:14:24.212Z,48.59
2016-03-07T10:15:24.262Z,48.78
2016-03-07T10:16:24.328Z,49.16
2016-03-07T10:17:24.362Z,48.49
2016-03-07T10:18:24.412Z,49.16
2016-03-07T10:19:24.462Z,48.39
2016-03-07T10:20:24.496Z,48.78
2016-03-07T10:21:24.560Z,48.59
2016-03-07T10:22:24.610Z,48.59
2016-03-07T10:23:24.659Z,48.68
2016-03-07T10:24:24.710Z,48.88
2016-03-07T10:25:24.759Z,48.68
2016-03-07T10:26:24.793Z,48.59
2016-03-07T10:27:24.842Z,48.59
2016-03-07T10:28:24.907Z,48.59
2016-03-07T10:29:24.973Z,48.78
2016-03-07T10:30:24.992Z,48.59
2016-03-07T10:31:25.056Z,48.78
2016-03-07T10:32:25.122Z,48.68
2016-03-07T10:33:25.171Z,48.78
2016-03-07T10:34:25.205Z,48.68
2016-03-07T10:35:25.255Z,48.78
2016-03-07T10:36:25.303Z,48.68
2016-03-07T10:37:25.353Z,48.49
2016-03-07T10:38:25.419Z,48.68
2016-03-07T10:39:25.437Z,48.68
2016-03-07T10:40:25.502Z,48.68
2016-03-07T10:41:25.567Z,48.49
2016-03-07T10:42:25.602Z,48.78
2016-03-07T10:43:25.651Z,48.68
2016-03-07T10:44:25.685Z,48.78
2016-03-07T10:45:25.766Z,48.78
2016-03-07T10:46:25.800Z,48.88
2016-03-07T10:47:25.849Z,48.68
2016-03-07T10:48:25.915Z,48.68
2016-03-07T10:49:25.949Z,48.78
2016-03-07T10:50:25.982Z,48.78
2016-03-07T10:51:26.048Z,48.78
2016-03-07T10:52:26.082Z,49.07
2016-03-07T10:53:26.146Z,48.97
2016-03-07T10:54:26.196Z,48.78
2016-03-07T10:55:26.245Z,48.78
2016-03-07T10:56:26.296Z,48.88
2016-03-07T10:57:26.376Z,48.68
2016-03-07T10:58:26.395Z,48.88
2016-03-07T10:59:26.444Z,48.88
2016-03-07T11:00:26.331Z,48.78
2016-03-07T11:01:26.551Z,48.78
2016-03-07T11:02:26.621Z,48.88
2016-03-07T11:03:26.806Z,48.88
2016-03-07T11:04:26.683Z,48.88
2016-03-07T11:05:26.749Z,48.78
2016-03-07T11:06:26.782Z,48.78
2016-03-07T11:07:26.863Z,48.97
2016-03-07T11:08:26.725Z,49.16
2016-03-07T11:09:26.932Z,49.35
2016-03-07T11:10:26.981Z,49.07
2016-03-07T11:11:27.030Z,49.16
2016-03-07T11:12:27.080Z,49.35
2016-03-07T11:13:27.130Z,49.26
2016-03-07T11:14:27.179Z,49.16
2016-03-07T11:15:27.259Z,49.07
2016-03-07T11:16:27.278Z,49.07
2016-03-07T11:17:27.343Z,49.26
2016-03-07T11:18:26.627Z,49.16
2016-03-07T11:19:27.442Z,49.35
2016-03-07T11:20:27.476Z,49.09
2016-03-07T11:21:27.526Z,48.88
2016-03-07T11:22:27.575Z,48.49
2016-03-07T11:23:27.626Z,48.59
2016-03-07T11:24:27.659Z,48.49
2016-03-07T11:25:27.739Z,47.34
2016-03-07T11:26:27.758Z,46.2
2016-03-07T11:27:27.823Z,45.15
2016-03-07T11:28:27.888Z,44.29
2016-03-07T11:29:27.922Z,44
2016-03-07T11:30:27.956Z,43.8
2016-03-07T11:31:28.022Z,44.67
2016-03-07T11:32:28.055Z,44.09
2016-03-07T11:33:28.121Z,44.19
2016-03-07T11:34:28.186Z,44.09
2016-03-07T11:35:28.219Z,44
2016-03-07T11:36:28.285Z,44
2016-03-07T11:37:28.335Z,43.69
2016-03-07T11:38:28.353Z,43.98
2016-03-07T11:39:28.418Z,43.98
2016-03-07T11:40:28.467Z,43.3
2016-03-07T11:41:28.518Z,43.4
2016-03-07T11:42:28.566Z,43.88
2016-03-07T11:43:28.616Z,43.5
2016-03-07T11:44:28.509Z,43.12
2016-03-07T11:45:28.716Z,43.3
2016-03-07T11:46:28.765Z,43.3
2016-03-07T11:47:28.829Z,43.4
2016-03-07T11:48:28.865Z,43.3
2016-03-07T11:49:28.914Z,43.4
2016-03-07T11:50:28.978Z,43.3
2016-03-07T11:51:29.013Z,43.3
2016-03-07T11:52:29.063Z,42.73
2016-03-07T11:53:29.112Z,43.12
2016-03-07T11:54:29.145Z,42.64
2016-03-07T11:55:29.195Z,43.21
2016-03-07T11:56:29.245Z,43.12
2016-03-07T11:57:29.294Z,43.21
2016-03-07T11:58:29.344Z,42.83
2016-03-07T11:59:29.409Z,43.3
2016-03-07T12:00:29.459Z,43.4
2016-03-07T12:01:29.509Z,43.5
2016-03-07T12:02:29.542Z,44.07
2016-03-07T12:03:29.592Z,44.45
2016-03-07T12:04:29.641Z,44.84
2016-03-07T12:05:29.691Z,44.84
2016-03-07T12:06:29.744Z,44.84
2016-03-07T12:07:29.806Z,44.93
2016-03-07T12:08:29.871Z,44.93
2016-03-07T12:09:29.888Z,44.74
2016-03-07T12:10:29.939Z,44.93
2016-03-07T12:11:29.988Z,45.31
2016-03-07T12:12:30.037Z,44.74
2016-03-07T12:13:30.103Z,45.15
2016-03-07T12:14:30.152Z,44.95
2016-03-07T12:15:30.186Z,45.53
2016-03-07T12:16:30.236Z,45.24
2016-03-07T12:17:30.286Z,45.24
2016-03-07T12:18:30.351Z,45.22
2016-03-07T12:19:30.384Z,45.34
2016-03-07T12:20:30.434Z,45.43
2016-03-07T12:21:30.312Z,45.34
2016-03-07T12:22:30.518Z,45.24
2016-03-07T12:23:30.598Z,45.15
2016-03-07T12:24:30.633Z,45.05
2016-03-07T12:25:30.682Z,45.05
2016-03-07T12:26:30.716Z,45.81
2016-03-07T12:27:30.031Z,45.05
2016-03-07T12:28:30.815Z,45.05
2016-03-07T12:29:30.865Z,44.95
2016-03-07T12:30:30.790Z,45.24
2016-03-07T12:31:30.964Z,44.95
2016-03-07T12:32:31.014Z,45.05
2016-03-07T12:33:31.063Z,46.01
2016-03-07T12:34:31.113Z,45.34
2016-03-07T12:35:31.163Z,45.53
2016-03-07T12:36:31.211Z,45.34
2016-03-07T12:37:31.261Z,45.43
2016-03-07T12:38:31.311Z,45.43
2016-03-07T12:39:31.360Z,45.53
2016-03-07T12:40:31.426Z,45.43
2016-03-07T12:41:31.460Z,45.62
2016-03-07T12:42:31.510Z,46.01
2016-03-07T12:43:31.559Z,45.81
2016-03-07T12:44:31.608Z,45.81
2016-03-07T12:45:31.658Z,45.91
2016-03-07T12:46:31.707Z,46.2
2016-03-07T12:47:31.757Z,45.81
2016-03-07T12:48:31.806Z,46.01
2016-03-07T12:49:31.888Z,45.91
2016-03-07T12:50:31.921Z,45.91
2016-03-07T12:51:31.955Z,46.1
2016-03-07T12:52:32.005Z,45.72
2016-03-07T12:53:32.054Z,45.91
2016-03-07T12:54:32.103Z,46.1
2016-03-07T12:55:32.154Z,46.39
2016-03-07T12:56:32.203Z,46.1